createdAt,value
2023-03-17T00:05:04.145Z,100004.31
2023-03-17T00:15:08.100Z,99990.44
2023-03-17T00:25:09.340Z,100000.81
2023-03-17T00:35:11.537Z,99993.06
2023-03-17T00:45:12.841Z,99994.78
2023-03-17T00:55:14.535Z,99984.47
2023-03-17T01:05:16.233Z,99976.69
2023-03-17T01:15:17.674Z,99961.16
2023-03-17T01:25:18.954Z,99947.31
2023-03-17T01:35:20.303Z,99930.91
2023-03-17T01:45:21.564Z,99920.53
2023-03-17T01:55:23.022Z,99930.84
2023-03-17T02:05:24.315Z,99920.47
2023-03-17T02:15:25.750Z,99916.13
2023-03-17T02:25:27.059Z,99910.91
2023-03-17T02:35:28.316Z,99913.47
2023-03-17T02:45:29.593Z,99902.19
2023-03-17T02:55:32.455Z,99900.38
2023-03-17T03:05:33.704Z,99889.94
2023-03-17T03:15:35.941Z,99897.56
2023-03-17T03:25:37.963Z,99888.03
2023-03-17T03:35:40.056Z,99883.53
2023-03-17T03:45:41.474Z,99889.50
2023-03-17T03:55:42.673Z,99890.19
2023-03-17T04:05:43.889Z,99897.00
2023-03-17T04:15:45.417Z,99900.34
2023-03-17T04:25:46.900Z,99889.06
2023-03-17T04:35:48.234Z,99873.47
2023-03-17T04:45:49.632Z,99877.63
2023-03-17T04:55:51.510Z,99904.25
2023-03-17T05:05:52.742Z,99909.28
2023-03-17T05:15:54.135Z,99906.53
2023-03-17T05:25:55.421Z,99909.13
2023-03-17T05:35:57.355Z,99927.16
2023-03-17T05:45:58.665Z,99928.78
2023-03-17T05:55:59.933Z,99930.63
2023-03-17T06:06:01.786Z,99922.09
2023-03-17T06:16:03.406Z,99918.81
2023-03-17T06:26:04.656Z,99924.13
2023-03-17T06:36:06.449Z,99934.84
2023-03-17T06:46:08.325Z,99946.41
2023-03-17T06:56:20.151Z,99949.34
2023-03-17T07:06:31.010Z,99941.00
2023-03-17T07:16:33.102Z,99929.84
2023-03-17T07:26:34.417Z,99934.22
2023-03-17T07:36:35.859Z,99942.06
2023-03-17T07:46:38.126Z,99950.78
2023-03-17T07:56:39.350Z,99944.78
2023-03-17T08:06:43.469Z,99938.75
2023-03-17T08:16:46.839Z,99949.97
2023-03-17T08:26:51.150Z,99938.66
2023-03-17T08:36:54.658Z,99935.06
2023-03-17T08:46:56.927Z,99923.13
2023-03-17T08:56:58.574Z,99912.03
2023-03-17T09:07:03.714Z,99888.19
2023-03-17T09:17:08.167Z,99883.81
2023-03-17T09:27:11.747Z,99879.91
2023-03-17T09:37:13.709Z,99878.66
2023-03-17T09:47:14.987Z,99864.94
2023-03-17T09:57:19.417Z,99859.88
2023-03-17T10:07:20.737Z,99849.47
2023-03-17T10:17:22.238Z,99841.94
2023-03-17T10:27:23.537Z,99824.38
2023-03-17T10:37:24.943Z,99812.59
2023-03-17T10:47:26.222Z,99812.50
2023-03-17T10:57:28.078Z,99817.34
2023-03-17T11:07:32.581Z,99807.59
2023-03-17T11:17:33.883Z,99798.44
2023-03-17T11:27:35.145Z,99787.38
2023-03-17T11:37:36.386Z,99774.78
2023-03-17T11:47:37.659Z,99763.75
2023-03-17T11:57:38.861Z,99756.25
2023-03-17T12:07:40.189Z,99756.84
2023-03-17T12:17:41.723Z,99742.06
2023-03-17T12:27:43.010Z,99739.72
2023-03-17T12:37:52.760Z,99722.06
2023-03-17T12:47:54.026Z,99717.06
2023-03-17T12:57:57.668Z,99688.25
2023-03-17T13:07:58.998Z,99692.31
2023-03-17T13:18:03.453Z,99674.72
2023-03-17T13:28:05.549Z,99658.94
2023-03-17T13:38:06.931Z,99650.88
2023-03-17T13:48:08.166Z,99653.19
2023-03-17T13:58:11.635Z,99652.13
2023-03-17T14:08:15.410Z,99643.16
2023-03-17T14:18:16.752Z,99650.34
2023-03-17T14:28:18.044Z,99634.94
2023-03-17T14:38:20.119Z,99623.16
2023-03-17T14:48:21.579Z,99618.31
2023-03-17T14:58:22.890Z,99615.22
2023-03-17T15:08:24.280Z,99588.00
2023-03-17T15:18:25.779Z,99600.81
2023-03-17T15:28:26.994Z,99608.16
2023-03-17T15:38:28.202Z,99608.72
2023-03-17T15:48:32.666Z,99604.56
2023-03-17T15:58:34.932Z,99593.31
2023-03-17T16:08:37.544Z,99601.59
2023-03-17T16:18:38.766Z,99603.63
2023-03-17T16:28:40.101Z,99589.44
2023-03-17T16:38:41.338Z,99593.63
2023-03-17T16:48:42.693Z,99603.28
2023-03-17T16:58:43.920Z,99615.75
2023-03-17T17:08:45.248Z,99630.75
2023-03-17T17:18:47.443Z,99628.00
2023-03-17T17:28:48.730Z,99642.16
2023-03-17T17:38:51.693Z,99649.47
2023-03-17T17:48:52.937Z,99659.63
2023-03-17T17:58:54.269Z,99673.38
2023-03-17T18:08:55.534Z,99678.97
2023-03-17T18:18:57.818Z,99682.16
2023-03-17T18:28:59.044Z,99689.84
2023-03-17T18:39:00.314Z,99696.28
2023-03-17T18:49:01.642Z,99694.84
2023-03-17T18:59:02.975Z,99686.53
2023-03-17T19:09:04.237Z,99698.31
2023-03-17T19:19:05.636Z,99699.53
2023-03-17T19:29:09.679Z,99707.72
2023-03-17T19:39:11.418Z,99706.31
2023-03-17T19:49:12.714Z,99709.84
2023-03-17T19:59:15.292Z,99711.44
2023-03-17T20:09:17.005Z,99709.72
2023-03-17T20:19:18.667Z,99697.06
2023-03-17T20:29:19.936Z,99704.00
2023-03-17T20:39:21.361Z,99717.31
2023-03-17T20:49:23.377Z,99722.28
2023-03-17T20:59:24.914Z,99716.47
2023-03-17T21:09:26.161Z,99715.91
2023-03-17T21:19:27.690Z,99731.75
2023-03-17T21:29:28.892Z,99736.38
2023-03-17T21:39:30.237Z,99742.47
2023-03-17T21:49:32.176Z,99770.41
2023-03-17T21:59:35.600Z,99759.25
2023-03-17T22:09:37.499Z,99763.84
2023-03-17T22:19:40.225Z,99764.94
2023-03-17T22:29:41.469Z,99779.09
2023-03-17T22:39:42.691Z,99786.16
2023-03-17T22:49:43.917Z,99794.00
2023-03-17T22:59:45.146Z,99797.47
2023-03-17T23:09:46.490Z,99801.88
2023-03-17T23:19:47.915Z,99817.66
2023-03-17T23:29:49.180Z,99834.94
2023-03-17T23:39:50.411Z,99830.34
2023-03-17T23:49:51.660Z,99832.56
2023-03-17T23:59:52.872Z,99838.63
